createdAt,value
2023-01-02T00:02:14.713Z,98682.41
2023-01-02T00:05:21.081Z,98680.69
2023-01-02T00:08:30.685Z,98679.16
2023-01-02T00:11:37.936Z,98675.19
2023-01-02T00:14:44.932Z,98676.13
2023-01-02T00:17:51.026Z,98674.47
2023-01-02T00:20:58.399Z,98678.84
2023-01-02T00:24:07.897Z,98677.28
2023-01-02T00:27:14.776Z,98672.94
2023-01-02T00:30:21.160Z,98671.41
2023-01-02T00:33:28.227Z,98676.44
2023-01-02T00:36:34.401Z,98675.75
2023-01-02T00:39:44.009Z,98670.66
2023-01-02T00:42:50.164Z,98669.63
2023-01-02T00:45:57.341Z,98669.91
2023-01-02T00:49:03.459Z,98665.47
2023-01-02T00:52:10.467Z,98656.19
2023-01-02T00:55:19.348Z,98655.50
2023-01-02T00:58:26.435Z,98658.16
2023-01-02T01:01:32.928Z,98655.38
2023-01-02T01:04:41.164Z,98654.09
2023-01-02T01:07:47.225Z,98651.88
2023-01-02T01:10:56.708Z,98653.72
2023-01-02T01:14:02.821Z,98651.59
2023-01-02T01:17:10.205Z,98654.69
2023-01-02T01:20:16.366Z,98653.78
2023-01-02T01:23:25.013Z,98651.97
2023-01-02T01:26:33.731Z,98649.75
2023-01-02T01:29:40.685Z,98652.19
2023-01-02T01:32:46.832Z,98646.88
2023-01-02T01:35:53.662Z,98642.50
2023-01-02T01:38:59.785Z,98631.13
2023-01-02T01:42:09.426Z,98628.38
2023-01-02T01:45:19.722Z,98632.94
2023-01-02T01:48:27.316Z,98628.00
2023-01-02T01:51:40.047Z,98625.75
2023-01-02T01:54:54.860Z,98631.09
2023-01-02T01:58:09.903Z,98619.06
2023-01-02T02:01:20.954Z,98613.69
2023-01-02T02:04:30.084Z,98609.69
2023-01-02T02:07:45.701Z,98613.69
2023-01-02T02:10:53.394Z,98594.00
2023-01-02T02:14:04.665Z,98591.09
2023-01-02T02:17:26.474Z,98591.00
2023-01-02T02:20:49.221Z,98588.34
2023-01-02T02:24:32.250Z,98588.44
2023-01-02T02:28:16.175Z,98585.94
2023-01-02T02:31:42.966Z,98589.44
2023-01-02T02:35:05.746Z,98586.94
2023-01-02T02:38:24.980Z,98585.00
2023-01-02T02:41:42.127Z,98583.75
2023-01-02T02:45:05.485Z,98581.94
2023-01-02T02:48:26.485Z,98583.25
2023-01-02T02:51:45.427Z,98578.84
2023-01-02T02:55:04.423Z,98571.56
2023-01-02T02:58:12.242Z,98576.13
2023-01-02T03:01:26.800Z,98576.00
2023-01-02T03:04:38.854Z,98579.81
2023-01-02T03:08:05.088Z,98588.47
2023-01-02T03:11:12.948Z,98589.16
2023-01-02T03:14:33.772Z,98584.13
2023-01-02T03:18:06.354Z,98583.00
2023-01-02T03:21:31.205Z,98584.13
2023-01-02T03:24:44.062Z,98579.69
2023-01-02T03:27:55.931Z,98580.03
2023-01-02T03:31:06.800Z,98578.69
2023-01-02T03:34:19.143Z,98574.13
2023-01-02T03:37:36.479Z,98576.31
2023-01-02T03:40:52.000Z,98582.72
2023-01-02T03:44:03.681Z,98584.06
2023-01-02T03:47:31.449Z,98577.28
2023-01-02T03:50:50.109Z,98576.00
2023-01-02T03:54:03.215Z,98582.53
2023-01-02T03:57:25.245Z,98575.88
2023-01-02T04:00:44.569Z,98566.00
2023-01-02T04:04:01.123Z,98561.38
2023-01-02T04:07:16.468Z,98556.94
2023-01-02T04:10:27.874Z,98546.22
2023-01-02T04:13:45.461Z,98551.75
2023-01-02T04:16:55.678Z,98554.69
2023-01-02T04:20:10.043Z,98550.00
2023-01-02T04:23:22.616Z,98538.88
2023-01-02T04:26:41.771Z,98540.13
2023-01-02T04:29:47.964Z,98537.50
2023-01-02T04:32:57.419Z,98539.44
2023-01-02T04:36:12.225Z,98539.13
2023-01-02T04:39:20.011Z,98534.50
2023-01-02T04:42:30.032Z,98532.59
2023-01-02T04:45:36.992Z,98539.91
2023-01-02T04:48:43.053Z,98545.59
2023-01-02T04:51:49.961Z,98548.16
2023-01-02T04:54:56.021Z,98545.88
2023-01-02T04:58:05.649Z,98532.88
2023-01-02T05:01:13.224Z,98533.50
2023-01-02T05:04:20.275Z,98525.31
2023-01-02T05:07:26.391Z,98527.19
2023-01-02T05:10:33.430Z,98526.38
2023-01-02T05:13:42.623Z,98525.38
2023-01-02T05:16:49.704Z,98529.16
2023-01-02T05:19:56.214Z,98531.47
2023-01-02T05:23:15.846Z,98534.66
2023-01-02T05:26:22.302Z,98533.94
2023-01-02T05:29:32.813Z,98530.06
2023-01-02T05:32:39.154Z,98527.31
2023-01-02T05:35:46.172Z,98529.22
2023-01-02T05:38:52.917Z,98516.47
2023-01-02T05:41:59.751Z,98531.16
2023-01-02T05:45:10.372Z,98524.06
2023-01-02T05:48:18.207Z,98528.97
2023-01-02T05:51:24.315Z,98530.88
2023-01-02T05:54:31.163Z,98536.88
2023-01-02T05:57:38.032Z,98551.22
2023-01-02T06:00:47.754Z,98557.66
2023-01-02T06:03:57.325Z,98559.75
2023-01-02T06:07:04.332Z,98555.84
2023-01-02T06:10:12.368Z,98552.22
2023-01-02T06:13:19.322Z,98549.44
2023-01-02T06:16:29.258Z,98553.06
2023-01-02T06:19:36.350Z,98550.28
2023-01-02T06:22:42.464Z,98554.72
2023-01-02T06:25:50.069Z,98550.16
2023-01-02T06:28:59.490Z,98558.34
2023-01-02T06:32:09.513Z,98548.91
2023-01-02T06:35:15.676Z,98545.41
2023-01-02T06:38:22.747Z,98539.13
2023-01-02T06:41:28.981Z,98546.06
2023-01-02T06:44:35.871Z,98551.59
2023-01-02T06:47:44.740Z,98550.75
2023-01-02T06:50:51.808Z,98545.72
2023-01-02T06:53:58.117Z,98541.28
2023-01-02T06:57:05.068Z,98539.88
2023-01-02T07:00:14.022Z,98535.69
2023-01-02T07:03:23.541Z,98544.56
2023-01-02T07:06:30.733Z,98542.75
2023-01-02T07:09:38.391Z,98540.06
2023-01-02T07:12:45.091Z,98535.88
2023-01-02T07:15:52.110Z,98535.31
2023-01-02T07:19:00.840Z,98541.72
2023-01-02T07:22:07.837Z,98541.91
2023-01-02T07:25:14.134Z,98534.41
2023-01-02T07:28:21.096Z,98528.03
2023-01-02T07:31:29.473Z,98545.28
2023-01-02T07:34:39.210Z,98544.72
2023-01-02T07:37:45.537Z,98544.25
2023-01-02T07:40:52.624Z,98547.69
2023-01-02T07:43:59.491Z,98545.66
2023-01-02T07:47:06.613Z,98537.72
2023-01-02T07:50:15.742Z,98534.97
2023-01-02T07:53:22.894Z,98537.13
2023-01-02T07:56:30.112Z,98527.22
2023-01-02T07:59:37.112Z,98531.53
2023-01-02T08:02:43.350Z,98524.97
2023-01-02T08:05:53.016Z,98523.72
2023-01-02T08:08:59.169Z,98529.72
2023-01-02T08:12:06.082Z,98532.44
2023-01-02T08:15:13.346Z,98533.28
2023-01-02T08:18:20.418Z,98513.00
2023-01-02T08:21:30.177Z,98532.75
2023-01-02T08:24:37.341Z,98530.91
2023-01-02T08:27:45.086Z,98524.81
2023-01-02T08:30:52.095Z,98528.00
2023-01-02T08:33:58.311Z,98526.50
2023-01-02T08:37:07.777Z,98527.59
2023-01-02T08:40:15.532Z,98525.56
2023-01-02T08:43:22.430Z,98529.84
2023-01-02T08:46:28.530Z,98525.16
2023-01-02T08:49:35.743Z,98521.88
2023-01-02T08:52:44.525Z,98519.72
2023-01-02T08:55:51.432Z,98519.59
2023-01-02T08:59:00.282Z,98518.09
2023-01-02T09:02:07.235Z,98516.72
2023-01-02T09:05:13.743Z,98523.44
2023-01-02T09:08:23.247Z,98529.53
2023-01-02T09:11:32.827Z,98526.22
2023-01-02T09:14:39.773Z,98522.59
2023-01-02T09:17:47.975Z,98521.63
2023-01-02T09:34:06.067Z,98504.22
2023-01-02T09:37:12.964Z,98494.78
2023-01-02T09:40:19.386Z,98484.75
2023-01-02T09:43:37.380Z,98483.94
2023-01-02T09:46:53.823Z,98483.53
2023-01-02T09:50:10.388Z,98483.59
2023-01-02T09:53:19.692Z,98477.25
2023-01-02T09:56:36.196Z,98479.22
2023-01-02T09:59:55.847Z,98472.88
2023-01-02T10:03:19.904Z,98484.94
2023-01-02T10:06:42.912Z,98473.81
2023-01-02T10:10:04.978Z,98473.97
2023-01-02T10:13:44.212Z,98473.53
2023-01-02T10:16:59.331Z,98456.78
2023-01-02T10:20:23.794Z,98454.56
2023-01-02T10:23:43.888Z,98451.88
2023-01-02T10:26:56.591Z,98455.31
2023-01-02T10:30:18.346Z,98440.94
2023-01-02T10:33:34.186Z,98433.94
2023-01-02T10:36:46.406Z,98426.16
2023-01-02T10:39:55.534Z,98441.91
2023-01-02T10:43:04.673Z,98438.84
2023-01-02T10:46:10.884Z,98426.69
2023-01-02T10:49:19.869Z,98419.28
2023-01-02T10:52:35.865Z,98415.44
2023-01-02T10:55:47.197Z,98419.63
2023-01-02T10:58:56.095Z,98402.38
2023-01-02T11:02:04.048Z,98412.53
2023-01-02T11:05:22.668Z,98415.00
2023-01-02T11:08:40.758Z,98402.06
2023-01-02T11:11:54.861Z,98393.53
2023-01-02T11:15:25.727Z,98388.19
2023-01-02T11:18:37.667Z,98396.03
2023-01-02T11:21:46.965Z,98385.28
2023-01-02T11:25:04.750Z,98392.00
2023-01-02T11:28:23.767Z,98387.44
2023-01-02T11:31:30.087Z,98378.19
2023-01-02T11:34:41.682Z,98392.63
2023-01-02T11:37:55.756Z,98391.69
2023-01-02T11:41:05.643Z,98391.44
2023-01-02T11:44:20.995Z,98387.94
2023-01-02T11:47:39.111Z,98387.38
2023-01-02T11:50:47.929Z,98390.03
2023-01-02T11:53:59.266Z,98381.59
2023-01-02T11:57:07.210Z,98384.78
2023-01-02T12:00:23.769Z,98387.03
2023-01-02T12:03:33.616Z,98390.44
2023-01-02T12:07:12.383Z,98386.03
2023-01-02T12:10:52.325Z,98372.44
2023-01-02T12:14:16.920Z,98369.56
2023-01-02T12:17:38.743Z,98383.72
2023-01-02T12:21:03.079Z,98380.97
2023-01-02T12:25:05.067Z,98377.31
2023-01-02T12:28:41.935Z,98385.06
2023-01-02T12:32:19.706Z,98385.03
2023-01-02T12:35:55.879Z,98392.91
2023-01-02T12:39:33.133Z,98380.59
2023-01-02T12:43:27.902Z,98378.47
2023-01-02T12:47:16.619Z,98368.00
2023-01-02T12:50:56.817Z,98356.59
2023-01-02T12:54:37.841Z,98353.19
2023-01-02T12:57:59.827Z,98337.94
2023-01-02T13:01:24.516Z,98336.38
2023-01-02T13:04:40.221Z,98342.91
2023-01-02T13:07:56.428Z,98349.47
2023-01-02T13:11:09.158Z,98354.22
2023-01-02T13:14:23.506Z,98362.25
2023-01-02T13:17:54.485Z,98368.59
2023-01-02T13:21:16.038Z,98367.34
2023-01-02T13:24:30.183Z,98361.19
2023-01-02T13:27:37.523Z,98349.75
2023-01-02T13:31:19.104Z,98348.28
2023-01-02T13:34:30.898Z,98347.69
2023-01-02T13:37:38.561Z,98353.03
2023-01-02T13:40:48.733Z,98356.59
2023-01-02T13:44:03.391Z,98356.41
2023-01-02T13:47:25.905Z,98353.06
2023-01-02T13:50:41.275Z,98364.47
2023-01-02T13:53:50.306Z,98361.81
2023-01-02T13:57:34.762Z,98363.84
2023-01-02T14:00:53.439Z,98357.53
2023-01-02T14:04:36.816Z,98349.94
2023-01-02T14:07:52.068Z,98355.03
2023-01-02T14:11:10.173Z,98362.56
2023-01-02T14:14:30.119Z,98370.22
2023-01-02T14:17:56.267Z,98371.25
2023-01-02T14:21:02.684Z,98382.75
2023-01-02T14:24:17.015Z,98376.13
2023-01-02T14:27:34.480Z,98377.81
2023-01-02T14:30:46.120Z,98382.59
2023-01-02T14:33:59.388Z,98367.91
2023-01-02T14:37:07.000Z,98368.00
2023-01-02T14:40:21.478Z,98363.88
2023-01-02T14:43:40.641Z,98367.06
2023-01-02T14:46:51.806Z,98373.31
2023-01-02T14:50:05.028Z,98370.47
2023-01-02T14:53:23.453Z,98358.41
2023-01-02T14:56:39.432Z,98379.16
2023-01-02T14:59:49.935Z,98372.22
2023-01-02T15:03:17.272Z,98380.81
2023-01-02T15:06:41.757Z,98369.25
2023-01-02T15:09:55.227Z,98362.97
2023-01-02T15:13:07.836Z,98382.34
2023-01-02T15:16:15.019Z,98384.13
2023-01-02T15:19:30.741Z,98389.66
2023-01-02T15:22:40.407Z,98390.13
2023-01-02T15:25:46.520Z,98393.56
2023-01-02T15:28:59.676Z,98404.06
2023-01-02T15:32:06.018Z,98401.44
2023-01-02T15:35:25.786Z,98396.69
2023-01-02T15:38:32.129Z,98398.41
2023-01-02T15:41:49.388Z,98388.44
2023-01-02T15:45:09.473Z,98388.63
2023-01-02T15:48:19.008Z,98378.31
2023-01-02T15:51:40.501Z,98385.81
2023-01-02T15:54:50.528Z,98378.84
2023-01-02T15:57:58.049Z,98389.97
2023-01-02T16:01:21.332Z,98377.88
2023-01-02T16:04:31.454Z,98394.00
2023-01-02T16:07:42.038Z,98364.63
2023-01-02T16:10:51.646Z,98391.69
2023-01-02T16:14:22.925Z,98377.94
2023-01-02T16:17:32.919Z,98405.00
2023-01-02T16:20:40.323Z,98391.53
2023-01-02T16:23:57.692Z,98405.00
2023-01-02T16:27:06.811Z,98392.69
2023-01-02T16:30:38.081Z,98410.00
2023-01-02T16:33:48.692Z,98401.84
2023-01-02T16:37:25.427Z,98390.25
2023-01-02T16:41:03.124Z,98404.50
2023-01-02T16:44:15.476Z,98396.00
2023-01-02T16:47:22.512Z,98394.16
2023-01-02T16:50:30.691Z,98388.88
2023-01-02T16:53:38.082Z,98386.19
2023-01-02T16:56:47.162Z,98382.19
2023-01-02T16:59:54.145Z,98397.66
2023-01-02T17:03:00.336Z,98399.81
2023-01-02T17:06:15.572Z,98417.53
2023-01-02T17:09:21.702Z,98404.59
2023-01-02T17:12:31.354Z,98413.41
2023-01-02T17:15:37.765Z,98423.19
2023-01-02T17:18:45.616Z,98419.03
2023-01-02T17:21:52.176Z,98417.59
2023-01-02T17:24:59.061Z,98426.66
2023-01-02T17:28:08.268Z,98424.50
2023-01-02T17:31:23.966Z,98399.03
2023-01-02T17:34:31.751Z,98391.75
2023-01-02T17:37:39.887Z,98396.09
2023-01-02T17:40:47.284Z,98400.22
2023-01-02T17:44:02.127Z,98397.72
2023-01-02T17:47:48.041Z,98401.50
2023-01-02T17:50:36.922Z,98398.81
2023-01-02T17:53:46.694Z,98399.31
2023-01-02T17:56:53.570Z,98407.94
2023-01-02T18:00:02.310Z,98383.50
2023-01-02T18:03:19.739Z,98393.13
2023-01-02T18:06:25.997Z,98397.75
2023-01-02T18:09:32.970Z,98403.34
2023-01-02T18:12:39.038Z,98402.16
2023-01-02T18:15:48.735Z,98421.88
2023-01-02T18:18:55.670Z,98416.09
2023-01-02T18:22:03.209Z,98419.59
2023-01-02T18:25:24.587Z,98421.34
2023-01-02T18:28:33.682Z,98426.88
2023-01-02T18:31:47.063Z,98424.22
2023-01-02T18:34:59.437Z,98432.78
2023-01-02T18:38:21.303Z,98425.41
2023-01-02T18:41:31.815Z,98410.53
2023-01-02T18:44:38.497Z,98427.28
2023-01-02T18:47:49.805Z,98424.13
2023-01-02T18:51:02.230Z,98418.78
2023-01-02T18:54:31.561Z,98415.44
2023-01-02T18:57:46.634Z,98419.59
2023-01-02T19:00:53.913Z,98421.19
2023-01-02T19:04:27.814Z,98423.72
2023-01-02T19:07:38.251Z,98421.19
2023-01-02T19:10:48.914Z,98418.53
2023-01-02T19:13:58.634Z,98415.53
2023-01-02T19:17:18.129Z,98420.50
2023-01-02T19:20:29.999Z,98415.59
2023-01-02T19:23:52.971Z,98424.94
2023-01-02T19:27:02.358Z,98425.44
2023-01-02T19:30:31.703Z,98413.56
2023-01-02T19:33:48.223Z,98429.09
2023-01-02T19:37:16.616Z,98426.13
2023-01-02T19:40:26.962Z,98425.72
2023-01-02T19:43:35.083Z,98431.25
2023-01-02T19:46:42.592Z,98428.41
2023-01-02T19:49:49.022Z,98438.50
2023-01-02T19:52:58.793Z,98434.44
2023-01-02T19:56:04.959Z,98449.56
2023-01-02T19:59:12.991Z,98452.13
2023-01-02T20:02:23.641Z,98457.38
2023-01-02T20:05:31.140Z,98459.47
2023-01-02T20:08:42.161Z,98457.91
2023-01-02T20:12:07.373Z,98469.63
2023-01-02T20:15:17.621Z,98453.44
2023-01-02T20:18:24.800Z,98459.53
2023-01-02T20:21:31.333Z,98463.38
2023-01-02T20:24:41.319Z,98463.31
2023-01-02T20:27:47.851Z,98472.06
2023-01-02T20:30:54.938Z,98477.22
2023-01-02T20:34:01.225Z,98480.03
2023-01-02T20:37:08.944Z,98479.19
2023-01-02T20:40:17.973Z,98488.69
2023-01-02T20:43:24.942Z,98487.44
2023-01-02T20:46:31.654Z,98487.59
2023-01-02T20:49:38.987Z,98485.34
2023-01-02T20:52:45.208Z,98480.16
2023-01-02T20:55:55.215Z,98477.91
2023-01-02T20:59:02.529Z,98496.88
2023-01-02T21:02:09.693Z,98497.38
2023-01-02T21:05:16.051Z,98494.00
2023-01-02T21:08:23.208Z,98503.50
2023-01-02T21:11:32.623Z,98506.69
2023-01-02T21:14:40.705Z,98504.00
2023-01-02T21:17:46.904Z,98503.03
2023-01-02T21:20:56.778Z,98496.25
2023-01-02T21:24:03.039Z,98498.47
2023-01-02T21:27:13.412Z,98508.97
2023-01-02T21:30:19.960Z,98530.69
2023-01-02T21:33:30.216Z,98511.84
2023-01-02T21:36:37.322Z,98517.22
2023-01-02T21:39:45.205Z,98510.03
2023-01-02T21:42:54.872Z,98522.22
2023-01-02T21:46:01.853Z,98524.63
2023-01-02T21:49:07.935Z,98523.53
2023-01-02T21:52:15.005Z,98531.78
2023-01-02T21:55:21.810Z,98536.59
2023-01-02T21:58:31.422Z,98546.66
2023-01-02T22:01:37.796Z,98543.09
2023-01-02T22:04:45.524Z,98543.34
2023-01-02T22:07:52.405Z,98542.72
2023-01-02T22:11:19.788Z,98543.13
2023-01-02T22:14:33.277Z,98542.19
2023-01-02T22:17:41.990Z,98534.13
2023-01-02T22:20:48.135Z,98535.41
2023-01-02T22:23:55.292Z,98541.38
2023-01-02T22:27:07.425Z,98553.75
2023-01-02T22:30:22.831Z,98568.97
2023-01-02T22:33:33.141Z,98564.53
2023-01-02T22:36:40.199Z,98567.75
2023-01-02T22:39:46.663Z,98574.16
2023-01-02T22:43:02.820Z,98566.63
2023-01-02T22:46:32.484Z,98561.19
2023-01-02T22:49:43.431Z,98560.75
2023-01-02T22:52:50.544Z,98569.56
2023-01-02T22:55:58.474Z,98577.47
2023-01-02T22:59:04.516Z,98564.13
2023-01-02T23:02:21.904Z,98584.75
2023-01-02T23:05:27.968Z,98576.34
2023-01-02T23:08:34.975Z,98574.28
2023-01-02T23:11:41.599Z,98584.69
2023-01-02T23:14:49.456Z,98595.44
2023-01-02T23:18:10.487Z,98597.25
2023-01-02T23:21:19.594Z,98601.13
2023-01-02T23:24:29.170Z,98590.81
2023-01-02T23:27:36.736Z,98591.53
2023-01-02T23:30:44.215Z,98590.56
2023-01-02T23:33:53.847Z,98586.09
2023-01-02T23:37:10.888Z,98576.06
2023-01-02T23:40:18.329Z,98592.91
2023-01-02T23:43:25.588Z,98586.81
2023-01-02T23:46:34.964Z,98579.84
2023-01-02T23:49:43.570Z,98593.09
2023-01-02T23:52:50.399Z,98582.50
2023-01-02T23:55:56.539Z,98590.56
2023-01-02T23:59:06.683Z,98586.09
